メインページ
METAR-TAF:

METAR-TAF

空港 :

スーセントマリー, オンタリオ州, カナダ

緯度: 46-29N, 経度: 084-30W, 海抜: 187m

現時点の気象観測

当レポートは1時間10分前の17:00(UTC)に作成
西の風 14kt
気温 19°C
湿度 73%
気圧 1015 hPa
視程: 40.2km
高度1800ftの雲はほとんどない, 塔状積雲.
高度18000ftの雲はほとんどない
高度25000ftの雲はほとんどない
高度28000ftの雲はほとんどない

METAR: CYAM 211700Z 28014KT 25SM FEW018TCU FEW180 FEW250 FEW280 19/14 A2998 RMK TCU1AC1CC1CI2 TCU TR AC TR CC TR SLP157 DENSITY ALT 1200FT

時間: 14:10 (18:10 UTC)

予報

当レポートは4時間32分前の13:38(UTC)に作成
予報は21日の 14時(UTC)から 22日の 02時(UTC)まで有効
西/北西の風 10kt
視程: 10km
高度1000ftの雲は散在している
21日の 1800時(UTC)から
北西の風 15kt、最大25ktの突風を伴う
視程: 10km
晴天
22日の 00時(UTC)から 22日の 02時(UTC)まで徐々に
西/北西の風 10kt

TAF: CYAM 211338Z 2114/2202 29010KT P6SM SCT010 FM211800 31015G25KT P6SM SKC BECMG 2200/2202 30010KT RMK NXT FCST BY 212000Z

4,000以上の空港の気象観測と天気予報(METAR報とTAF報)

利用可能な観測所は地図上に黄色い丸と赤い丸で示す。

丸の上にカーソルを重ねると観測所名を参照できる。

次にクリックすると気象観測と天気予報を参照できる。

マップの切り替え:黒色「×」印の緑ボタンをクリックして拡大、「-」印の緑ボタンをクリックして縮小、緑色の三角印をクリックして隣りの地図に切り替え


METAR-TAF: